Time;durP1;ratioP1;P1;durP2;ratioP2;P2;SDS_P1;SDS_P2;PMS_P1;PMS_P2;Temp;Humidity;BMP_temperature;BMP_pressure;BME280_temperature;BME280_humidity;BME280_pressure;Samples;Min_cycle;Max_cycle;Signal;HPM_P1;HPM_P2
2021/10/08 00:00:37;;;;;;;;;;;;;;;15.87;60.06;100483.59;4439257;32;21960;-87
2021/10/08 00:03:02;;;;;;;;;;;;;;;15.84;60.05;100482.84;4439395;32;19985;-86
2021/10/08 00:05:27;;;;;;;;;;;;;;;15.65;60.04;100475.75;4438081;32;27653;-87
2021/10/08 00:07:53;;;;;;;;;;;;;;;15.66;60.05;100484.50;4438524;32;29265;-86
2021/10/08 00:10:18;;;;;;;;;;;;;;;15.68;60.05;100493.16;4438433;32;20011;-88
2021/10/08 00:12:46;;;;;;;;;;;;;;;15.72;60.06;100486.00;4438017;32;22801;-87
2021/10/08 00:15:14;;;;;;;;;;;;;;;15.61;60.04;100492.56;4438411;32;20350;-87
2021/10/08 00:17:39;;;;;;;;;;;;;;;15.67;60.05;100490.59;4438162;32;20361;-86
2021/10/08 00:20:07;;;;;;;;;;;;;;;15.72;60.05;100492.09;4437972;32;29690;-86
2021/10/08 00:22:32;;;;;;;;;;;;;;;15.64;60.05;100497.69;4438638;32;20004;-86
2021/10/08 00:24:57;;;;;;;;;;;;;;;15.73;60.05;100488.56;4438774;32;25734;-88
2021/10/08 00:27:23;;;;;;;;;;;;;;;15.68;60.05;100494.94;4438912;32;20020;-88
2021/10/08 00:29:48;;;;;;;;;;;;;;;15.71;60.05;100503.53;4438542;32;19981;-87
2021/10/08 00:32:13;;;;;;;;;;;;;;;15.61;60.04;100491.66;4437814;32;23849;-88
2021/10/08 00:34:41;;;;;;;;;;;;;;;15.75;60.05;100497.22;4438530;32;19999;-84
2021/10/08 00:37:09;;;;;;;;;;;;;;;15.78;60.05;100498.88;4438402;32;20012;-86
2021/10/08 00:39:35;;;;;;;;;;;;;;;15.70;60.05;100500.97;4425646;32;19982;-86
2021/10/08 00:42:00;;;;;;;;;;;;;;;15.72;60.05;100502.59;4438228;32;20006;-87
2021/10/08 00:44:28;;;;;;;;;;;;;;;15.70;60.05;100503.59;4425104;32;20833;-86
2021/10/08 00:46:53;;;;;;;;;;;;;;;15.61;60.04;100510.03;4438361;32;19973;-84
2021/10/08 00:49:18;;;;;;;;;;;;;;;15.50;60.04;100506.97;4437697;32;24721;-87
2021/10/08 00:51:46;;;;;;;;;;;;;;;15.55;60.05;100507.63;4438098;32;20001;-86
2021/10/08 00:54:11;;;;;;;;;;;;;;;15.35;60.03;100505.81;4438812;32;20007;-86
2021/10/08 00:56:37;;;;;;;;;;;;;;;15.49;60.04;100508.75;4438451;32;20235;-86
2021/10/08 00:59:02;;;;;;;;;;;;;;;15.53;60.04;100512.94;4438356;32;19989;-86
2021/10/08 01:01:27;;;;;;;;;;;;;;;15.52;60.04;100523.50;4438229;32;28719;-87
2021/10/08 01:03:52;;;;;;;;;;;;;;;15.34;60.03;100520.69;4439713;32;19986;-86
2021/10/08 01:06:18;;;;;;;;;;;;;;;15.44;60.04;100523.81;4444250;32;19992;-86
2021/10/08 01:08:46;;;;;;;;;;;;;;;15.41;60.04;100525.72;4438407;32;31131;-89
2021/10/08 01:11:19;;;;;;;;;;;;;;;15.43;60.03;100522.13;4439562;32;19973;-88
2021/10/08 01:13:44;;;;;;;;;;;;;;;15.53;60.03;100519.97;4438589;32;19997;-86
2021/10/08 01:16:10;;;;;;;;;;;;;;;15.49;60.04;100528.87;4438438;32;20264;-87
2021/10/08 01:18:35;;;;;;;;;;;;;;;15.45;60.03;100532.56;4436371;32;34835;-86
2021/10/08 01:21:00;;;;;;;;;;;;;;;15.49;60.04;100531.50;4438561;32;32422;-87
2021/10/08 01:23:25;;;;;;;;;;;;;;;15.35;60.03;100538.13;4436880;32;20028;-87
2021/10/08 01:25:51;;;;;;;;;;;;;;;15.46;60.03;100527.25;4437338;32;19977;-87
2021/10/08 01:28:18;;;;;;;;;;;;;;;15.47;60.04;100521.06;4437655;32;20016;-88
2021/10/08 01:30:44;;;;;;;;;;;;;;;15.22;60.02;100529.06;4437862;32;20368;-86
2021/10/08 01:33:09;;;;;;;;;;;;;;;15.27;60.03;100528.87;4437770;32;19977;-86
2021/10/08 01:35:34;;;;;;;;;;;;;;;15.30;60.03;100529.59;4437652;32;20027;-85
2021/10/08 01:37:59;;;;;;;;;;;;;;;15.16;60.02;100528.44;4438581;32;20028;-89
2021/10/08 01:40:25;;;;;;;;;;;;;;;15.11;60.02;100530.38;4438826;32;23122;-87
2021/10/08 01:42:51;;;;;;;;;;;;;;;15.00;60.01;100534.25;4425772;32;19985;-89
2021/10/08 01:45:16;;;;;;;;;;;;;;;15.10;60.02;100529.50;4438993;32;19969;-89
2021/10/08 01:47:42;;;;;;;;;;;;;;;14.96;60.01;100531.81;4438700;32;33245;-89
2021/10/08 01:50:10;;;;;;;;;;;;;;;14.87;60.01;100530.38;4436059;32;23929;-85
2021/10/08 01:52:35;;;;;;;;;;;;;;;14.88;60.01;100536.47;4436622;32;19993;-85
2021/10/08 01:55:00;;;;;;;;;;;;;;;15.01;60.02;100533.34;4436178;32;19989;-85
2021/10/08 01:57:26;;;;;;;;;;;;;;;15.04;60.02;100538.47;4435541;32;20369;-85
2021/10/08 01:59:51;;;;;;;;;;;;;;;15.02;60.02;100547.31;4436422;32;20258;-85
2021/10/08 02:02:16;;;;;;;;;;;;;;;14.87;60.01;100555.72;4423905;32;19993;-86
2021/10/08 02:04:42;;;;;;;;;;;;;;;15.00;60.01;100554.38;4435796;32;37330;-85
2021/10/08 02:07:07;;;;;;;;;;;;;;;14.84;60.00;100546.22;4436122;32;19986;-84
2021/10/08 02:09:32;;;;;;;;;;;;;;;14.86;60.00;100549.63;4436060;32;24559;-84
2021/10/08 02:11:57;;;;;;;;;;;;;;;14.72;60.00;100550.16;4436059;32;25927;-86
2021/10/08 02:14:23;;;;;;;;;;;;;;;14.65;60.00;100553.88;4436693;32;20011;-86
2021/10/08 02:16:48;;;;;;;;;;;;;;;14.54;59.98;100544.72;4437263;32;20004;-87
2021/10/08 02:19:13;;;;;;;;;;;;;;;14.65;59.99;100553.03;4436660;32;25381;-87
2021/10/08 02:21:38;;;;;;;;;;;;;;;14.59;59.99;100553.25;4436211;32;31318;-87
2021/10/08 02:24:04;;;;;;;;;;;;;;;14.77;60.00;100550.00;4436279;32;28726;-85
2021/10/08 02:26:29;;;;;;;;;;;;;;;14.74;60.00;100550.09;4437011;32;19992;-87
2021/10/08 02:28:54;;;;;;;;;;;;;;;14.61;59.99;100548.81;4438266;32;20008;-87
2021/10/08 02:31:19;;;;;;;;;;;;;;;14.48;59.98;100550.19;4438940;32;28299;-86
2021/10/08 02:33:44;;;;;;;;;;;;;;;14.34;59.98;100551.47;4438726;32;23951;-85
2021/10/08 02:36:10;;;;;;;;;;;;;;;14.28;59.98;100551.69;4437469;32;22936;-84
2021/10/08 02:38:35;;;;;;;;;;;;;;;14.19;59.97;100559.84;4424715;32;20572;-84
2021/10/08 02:41:00;;;;;;;;;;;;;;;14.13;59.97;100558.28;4438901;32;20001;-86
2021/10/08 02:43:26;;;;;;;;;;;;;;;14.12;59.97;100553.97;4438567;32;20366;-86
2021/10/08 02:45:51;;;;;;;;;;;;;;;14.28;59.98;100559.56;4439085;32;20314;-85
2021/10/08 02:48:17;;;;;;;;;;;;;;;14.32;59.97;100558.53;4438740;32;20822;-86
2021/10/08 02:50:42;;;;;;;;;;;;;;;14.35;59.98;100561.03;4439823;32;19989;-86
2021/10/08 02:53:07;;;;;;;;;;;;;;;14.05;59.96;100559.47;4439072;32;20306;-87
2021/10/08 02:55:33;;;;;;;;;;;;;;;14.20;59.97;100560.72;4442083;32;30464;-84
2021/10/08 02:57:58;;;;;;;;;;;;;;;14.25;59.96;100557.03;4441446;32;20014;-86
2021/10/08 03:00:23;;;;;;;;;;;;;;;14.08;59.96;100554.12;4438568;32;20023;-86
2021/10/08 03:02:48;;;;;;;;;;;;;;;13.78;59.94;100561.22;4438010;32;20028;-85
2021/10/08 03:05:14;;;;;;;;;;;;;;;14.08;59.96;100561.97;4437752;32;20278;-87
2021/10/08 03:07:39;;;;;;;;;;;;;;;13.89;59.96;100561.72;4437999;32;19985;-85
2021/10/08 03:10:05;;;;;;;;;;;;;;;13.99;59.95;100580.63;4438213;32;19994;-84
2021/10/08 03:12:30;;;;;;;;;;;;;;;14.07;59.96;100573.38;4438080;32;19969;-85
2021/10/08 03:14:55;;;;;;;;;;;;;;;14.02;59.96;100575.28;4438627;32;27790;-85
2021/10/08 03:17:20;;;;;;;;;;;;;;;13.94;59.96;100585.97;4437258;32;31344;-83
2021/10/08 03:19:46;;;;;;;;;;;;;;;13.81;59.95;100582.06;4437271;32;28249;-85
2021/10/08 03:22:11;;;;;;;;;;;;;;;13.74;59.94;100598.88;4438028;32;22642;-85
2021/10/08 03:24:37;;;;;;;;;;;;;;;13.93;59.95;100597.34;4438404;32;20064;-86
2021/10/08 03:27:02;;;;;;;;;;;;;;;13.92;59.95;100610.50;4437743;32;20424;-86
2021/10/08 03:29:27;;;;;;;;;;;;;;;13.85;59.95;100609.00;4438079;32;20000;-85
2021/10/08 03:31:52;;;;;;;;;;;;;;;13.80;59.95;100606.53;4437450;32;19985;-85
2021/10/08 03:34:18;;;;;;;;;;;;;;;13.88;59.95;100601.88;4436721;32;33762;-85
2021/10/08 03:39:09;;;;;;;;;;;;;;;13.90;59.95;100607.94;4437891;32;20071;-86
2021/10/08 03:41:36;;;;;;;;;;;;;;;13.76;59.95;100608.38;4423986;32;19981;-84
2021/10/08 03:44:03;;;;;;;;;;;;;;;13.80;59.95;100607.38;4437290;32;19978;-84
2021/10/08 03:46:33;;;;;;;;;;;;;;;13.86;59.95;100615.94;4437329;32;20015;-85
2021/10/08 03:49:12;;;;;;;;;;;;;;;13.94;59.95;100606.06;4437400;32;20322;-84
2021/10/08 03:51:38;;;;;;;;;;;;;;;13.83;59.95;100606.41;4437561;32;20040;-84
2021/10/08 03:54:03;;;;;;;;;;;;;;;13.78;59.94;100611.81;4439263;32;20008;-86
2021/10/08 03:56:28;;;;;;;;;;;;;;;13.72;59.95;100603.25;4438304;32;20055;-86
2021/10/08 03:58:57;;;;;;;;;;;;;;;13.68;59.94;100618.22;4438422;32;19982;-86
2021/10/08 04:01:22;;;;;;;;;;;;;;;13.64;59.94;100613.97;4425235;32;19995;-84
2021/10/08 04:03:47;;;;;;;;;;;;;;;13.94;59.95;100624.38;4437721;32;19973;-84
2021/10/08 04:06:13;;;;;;;;;;;;;;;14.05;59.96;100614.44;4437555;32;20307;-84
2021/10/08 04:08:38;;;;;;;;;;;;;;;13.83;59.95;100628.22;4437966;32;20049;-85
2021/10/08 04:11:03;;;;;;;;;;;;;;;13.88;59.96;100625.44;4438235;32;20017;-85
2021/10/08 04:13:29;;;;;;;;;;;;;;;13.79;59.95;100621.38;4438520;32;20017;-84
2021/10/08 04:15:54;;;;;;;;;;;;;;;13.67;59.94;100628.72;4438182;32;20001;-86
2021/10/08 04:18:19;;;;;;;;;;;;;;;13.60;59.93;100627.22;4437616;32;19978;-86
2021/10/08 04:20:44;;;;;;;;;;;;;;;13.62;59.93;100628.00;4437797;32;31049;-86
2021/10/08 04:23:09;;;;;;;;;;;;;;;13.29;59.92;100633.34;4437426;32;32568;-86
2021/10/08 04:25:35;;;;;;;;;;;;;;;13.51;59.93;100644.91;4438355;32;20004;-85
2021/10/08 04:28:00;;;;;;;;;;;;;;;13.37;59.92;100641.81;4437904;32;25598;-85
2021/10/08 04:30:25;;;;;;;;;;;;;;;13.33;59.92;100639.34;4438286;32;19997;-86
2021/10/08 04:32:50;;;;;;;;;;;;;;;13.36;59.92;100632.28;4439663;32;20007;-88
2021/10/08 04:35:16;;;;;;;;;;;;;;;13.57;59.94;100630.78;4440445;32;20024;-88
2021/10/08 04:37:41;;;;;;;;;;;;;;;13.69;59.94;100637.37;4439682;32;19993;-88
2021/10/08 04:40:06;;;;;;;;;;;;;;;13.64;59.95;100631.44;4439238;32;29776;-89
2021/10/08 04:42:32;;;;;;;;;;;;;;;13.54;59.93;100627.41;4427315;32;19981;-88
2021/10/08 04:44:57;;;;;;;;;;;;;;;13.65;59.95;100630.53;4428644;32;20019;-88
2021/10/08 04:47:22;;;;;;;;;;;;;;;13.65;59.95;100622.69;4439570;32;20016;-88
2021/10/08 04:49:47;;;;;;;;;;;;;;;13.75;59.94;100632.84;4439777;32;19974;-88
2021/10/08 04:52:13;;;;;;;;;;;;;;;13.56;59.93;100629.06;4439157;32;34305;-89
2021/10/08 04:54:38;;;;;;;;;;;;;;;13.49;59.93;100638.00;4439859;32;19986;-88
2021/10/08 04:57:04;;;;;;;;;;;;;;;13.21;59.91;100635.31;4439779;32;19985;-87
2021/10/08 04:59:29;;;;;;;;;;;;;;;13.05;59.91;100640.09;4426877;32;19973;-89
2021/10/08 05:01:54;;;;;;;;;;;;;;;13.21;59.91;100641.41;4439953;32;19974;-88
2021/10/08 05:04:19;;;;;;;;;;;;;;;13.05;59.91;100647.09;4439232;32;20612;-88
2021/10/08 05:06:46;;;;;;;;;;;;;;;13.16;59.91;100643.25;4438794;32;33283;-88
2021/10/08 05:09:11;;;;;;;;;;;;;;;13.23;59.91;100648.34;4439385;32;19964;-87
2021/10/08 05:11:36;;;;;;;;;;;;;;;13.09;59.90;100652.19;4438785;32;30906;-89
2021/10/08 05:14:01;;;;;;;;;;;;;;;13.21;59.92;100656.22;4439828;32;20015;-87
2021/10/08 05:16:27;;;;;;;;;;;;;;;13.04;59.91;100668.91;4439706;32;19981;-88
2021/10/08 05:18:52;;;;;;;;;;;;;;;13.07;59.91;100661.81;4439104;32;24798;-88
2021/10/08 05:21:17;;;;;;;;;;;;;;;13.14;59.91;100668.59;4439802;32;20002;-88
2021/10/08 05:23:43;;;;;;;;;;;;;;;13.34;59.92;100669.81;4426617;32;20005;-87
2021/10/08 05:26:08;;;;;;;;;;;;;;;13.14;59.92;100667.72;4438652;32;25895;-87
2021/10/08 05:28:33;;;;;;;;;;;;;;;13.10;59.90;100669.59;4439282;32;20151;-88
2021/10/08 05:30:58;;;;;;;;;;;;;;;13.12;59.91;100669.53;4438884;32;28546;-85
2021/10/08 05:33:24;;;;;;;;;;;;;;;13.31;59.92;100670.78;4439477;32;20282;-87
2021/10/08 05:35:49;;;;;;;;;;;;;;;13.44;59.93;100673.88;4439795;32;19989;-88
2021/10/08 05:38:14;;;;;;;;;;;;;;;13.29;59.92;100675.19;4439434;32;20011;-88
2021/10/08 05:40:39;;;;;;;;;;;;;;;13.36;59.92;100673.25;4439782;32;19989;-87
2021/10/08 05:43:05;;;;;;;;;;;;;;;13.25;59.91;100668.34;4439378;32;20025;-89
2021/10/08 05:45:30;;;;;;;;;;;;;;;13.42;59.93;100673.06;4440088;32;20012;-88
2021/10/08 05:47:55;;;;;;;;;;;;;;;13.26;59.91;100663.97;4439985;32;20031;-88
2021/10/08 05:50:21;;;;;;;;;;;;;;;13.25;59.91;100670.97;4439247;32;20038;-88
2021/10/08 05:52:46;;;;;;;;;;;;;;;13.14;59.92;100667.72;4438688;32;25688;-87
2021/10/08 05:55:11;;;;;;;;;;;;;;;13.25;59.91;100675.31;4440152;32;20369;-88
2021/10/08 05:57:36;;;;;;;;;;;;;;;13.26;59.91;100666.59;4440584;32;25852;-87
2021/10/08 06:00:02;;;;;;;;;;;;;;;13.31;59.92;100662.94;4439150;32;20007;-87
2021/10/08 06:02:27;;;;;;;;;;;;;;;13.32;59.92;100669.88;4437687;32;20358;-87
2021/10/08 06:04:53;;;;;;;;;;;;;;;13.23;59.91;100677.09;4439290;32;20012;-88
2021/10/08 06:07:18;;;;;;;;;;;;;;;13.20;59.92;100678.91;4438871;32;30368;-88
2021/10/08 06:09:45;;;;;;;;;;;;;;;13.24;59.91;100684.91;4439378;32;27824;-89
2021/10/08 06:12:11;;;;;;;;;;;;;;;13.44;59.93;100685.19;4440068;32;20506;-89
2021/10/08 06:14:36;;;;;;;;;;;;;;;13.34;59.92;100693.34;4439877;32;20370;-85
2021/10/08 06:17:01;;;;;;;;;;;;;;;13.43;59.93;100688.72;4440797;32;20353;-88
2021/10/08 06:19:27;;;;;;;;;;;;;;;13.50;59.93;100692.88;4439490;32;20005;-88
2021/10/08 06:21:52;;;;;;;;;;;;;;;13.37;59.93;100686.28;4439017;32;19997;-87
2021/10/08 06:24:17;;;;;;;;;;;;;;;13.59;59.94;100691.75;4439676;32;20004;-87
2021/10/08 06:26:42;;;;;;;;;;;;;;;13.62;59.93;100691.66;4439293;32;24037;-88
2021/10/08 06:29:07;;;;;;;;;;;;;;;13.59;59.94;100696.12;4444495;32;26825;-87
2021/10/08 06:31:33;;;;;;;;;;;;;;;13.42;59.93;100700.06;4442257;32;20016;-87
2021/10/08 06:33:58;;;;;;;;;;;;;;;13.25;59.91;100701.44;4438628;32;28916;-88
2021/10/08 06:36:23;;;;;;;;;;;;;;;13.37;59.92;100701.97;4439431;32;19977;-88
2021/10/08 06:38:48;;;;;;;;;;;;;;;13.65;59.95;100701.16;4439467;32;20039;-88
2021/10/08 06:41:14;;;;;;;;;;;;;;;13.82;59.95;100705.00;4438892;32;26119;-88
2021/10/08 06:43:39;;;;;;;;;;;;;;;13.90;59.95;100690.81;4438846;32;20027;-87
2021/10/08 06:46:04;;;;;;;;;;;;;;;13.90;59.95;100706.53;4439532;32;20026;-87
2021/10/08 06:48:29;;;;;;;;;;;;;;;14.02;59.95;100698.31;4438427;32;25594;-88
2021/10/08 06:50:57;;;;;;;;;;;;;;;13.74;59.94;100707.00;4439297;32;20019;-88
2021/10/08 06:53:22;;;;;;;;;;;;;;;13.85;59.95;100711.06;4439365;32;20011;-88
2021/10/08 06:55:48;;;;;;;;;;;;;;;13.65;59.94;100709.88;4439263;32;20041;-85
2021/10/08 06:58:13;;;;;;;;;;;;;;;13.77;59.94;100712.16;4438767;32;19970;-88
2021/10/08 07:00:38;;;;;;;;;;;;;;;13.81;59.95;100715.53;4438055;32;32666;-88
2021/10/08 07:03:03;;;;;;;;;;;;;;;13.82;59.95;100709.38;4439287;32;20035;-88
2021/10/08 07:05:29;;;;;;;;;;;;;;;13.77;59.94;100706.91;4440413;32;19987;-88
2021/10/08 07:07:54;;;;;;;;;;;;;;;13.71;59.94;100711.44;4438633;32;29420;-89
2021/10/08 07:10:19;;;;;;;;;;;;;;;13.87;59.94;100707.47;4439082;32;20275;-88
2021/10/08 07:12:44;;;;;;;;;;;;;;;13.82;59.95;100714.63;4439279;32;20042;-88
2021/10/08 07:15:17;;;;;;;;;;;;;;;13.70;59.94;100707.97;4437608;32;27179;-87
2021/10/08 07:17:44;;;;;;;;;;;;;;;13.58;59.93;100713.59;4440228;32;20001;-87
2021/10/08 07:20:10;;;;;;;;;;;;;;;13.73;59.94;100728.00;4426746;32;19997;-87
2021/10/08 07:22:38;;;;;;;;;;;;;;;13.62;59.93;100722.19;4438780;32;20017;-88
2021/10/08 07:25:04;;;;;;;;;;;;;;;13.67;59.94;100720.28;4439227;32;19969;-88
2021/10/08 07:27:29;;;;;;;;;;;;;;;13.77;59.95;100721.75;4426381;32;20251;-88
2021/10/08 07:29:55;;;;;;;;;;;;;;;13.86;59.94;100726.69;4438834;32;19990;-88
2021/10/08 07:32:20;;;;;;;;;;;;;;;13.81;59.95;100729.47;4438626;32;20249;-89
2021/10/08 07:34:45;;;;;;;;;;;;;;;13.59;59.94;100733.59;4438958;32;19993;-88
2021/10/08 07:37:13;;;;;;;;;;;;;;;13.67;59.94;100730.75;4438210;32;29658;-87
2021/10/08 07:39:38;;;;;;;;;;;;;;;13.93;59.95;100732.59;4439437;32;19998;-89
2021/10/08 07:42:04;;;;;;;;;;;;;;;14.17;59.96;100736.22;4438939;32;20016;-87
2021/10/08 07:44:29;;;;;;;;;;;;;;;14.32;59.97;100744.47;4438219;32;33182;-88
2021/10/08 07:46:54;;;;;;;;;;;;;;;14.20;59.97;100730.94;4438410;32;30899;-88
2021/10/08 07:49:19;;;;;;;;;;;;;;;14.20;59.97;100734.41;4438727;32;20031;-87
2021/10/08 07:51:45;;;;;;;;;;;;;;;14.20;59.97;100744.03;4438516;32;20262;-87
2021/10/08 07:54:10;;;;;;;;;;;;;;;14.10;59.97;100751.28;4438712;32;19997;-88
2021/10/08 07:56:35;;;;;;;;;;;;;;;14.10;59.97;100748.66;4426271;32;19993;-88
2021/10/08 07:59:03;;;;;;;;;;;;;;;14.19;59.97;100739.66;4439710;32;25972;-87
2021/10/08 08:01:28;;;;;;;;;;;;;;;13.90;59.95;100744.03;4439620;32;20005;-87
2021/10/08 08:03:53;;;;;;;;;;;;;;;14.10;59.97;100743.44;4438742;32;20374;-89
2021/10/08 08:06:18;;;;;;;;;;;;;;;14.15;59.96;100749.37;4439717;32;31235;-89
2021/10/08 08:08:44;;;;;;;;;;;;;;;14.17;59.96;100755.41;4438556;32;19998;-89
2021/10/08 08:11:09;;;;;;;;;;;;;;;14.09;59.96;100762.66;4438356;32;23458;-89
2021/10/08 08:13:34;;;;;;;;;;;;;;;14.02;59.96;100748.91;4438269;32;23626;-88
2021/10/08 08:15:59;;;;;;;;;;;;;;;14.20;59.97;100751.87;4445961;32;20381;-89
2021/10/08 08:18:24;;;;;;;;;;;;;;;14.34;59.98;100750.53;4441074;32;34997;-88
2021/10/08 08:20:50;;;;;;;;;;;;;;;14.38;59.98;100746.03;4438246;32;19989;-88
2021/10/08 08:23:16;;;;;;;;;;;;;;;14.49;59.99;100746.59;4438020;32;25612;-88
2021/10/08 08:25:41;;;;;;;;;;;;;;;14.30;59.97;100754.16;4440085;32;20630;-87
2021/10/08 08:28:07;;;;;;;;;;;;;;;14.40;59.99;100752.94;4437592;32;33505;-87
2021/10/08 08:30:37;;;;;;;;;;;;;;;14.50;59.99;100744.84;4438605;32;20045;-88
2021/10/08 08:33:02;;;;;;;;;;;;;;;14.57;59.99;100747.22;4439025;32;19992;-89
2021/10/08 08:35:27;;;;;;;;;;;;;;;14.70;60.00;100742.44;4438641;32;20014;-89
2021/10/08 08:37:52;;;;;;;;;;;;;;;14.79;60.01;100738.63;4438002;32;26003;-89
2021/10/08 08:40:18;;;;;;;;;;;;;;;14.93;60.01;100737.28;4437844;32;31571;-88
2021/10/08 08:42:43;;;;;;;;;;;;;;;15.07;60.01;100742.03;4438632;32;20220;-89
2021/10/08 08:45:08;;;;;;;;;;;;;;;14.97;60.01;100733.62;4437888;32;28401;-88
2021/10/08 08:47:34;;;;;;;;;;;;;;;15.12;60.02;100726.97;4438232;32;19993;-89
2021/10/08 08:49:59;;;;;;;;;;;;;;;15.15;60.02;100731.28;4438602;32;20009;-88
2021/10/08 08:52:25;;;;;;;;;;;;;;;15.00;60.01;100719.56;4437677;32;19988;-89
2021/10/08 08:54:52;;;;;;;;;;;;;;;15.03;60.02;100722.94;4437673;32;35601;-88
2021/10/08 08:57:20;;;;;;;;;;;;;;;15.12;60.02;100721.72;4438679;32;20000;-89
2021/10/08 09:00:21;;;;;;;;;;;;;;;15.23;60.02;100721.37;4426127;32;20012;-88
2021/10/08 09:02:55;;;;;;;;;;;;;;;15.31;60.04;100719.31;4414320;32;19989;-89
2021/10/08 09:05:27;;;;;;;;;;;;;;;15.25;60.03;100720.41;4441537;32;19973;-89
2021/10/08 09:07:56;;;;;;;;;;;;;;;15.45;60.04;100710.97;4425666;32;20008;-88
2021/10/08 09:10:24;;;;;;;;;;;;;;;15.50;60.04;100720.38;4426217;32;20678;-89
2021/10/08 09:12:49;;;;;;;;;;;;;;;15.43;60.03;100721.50;4425538;32;19965;-89
2021/10/08 09:15:15;;;;;;;;;;;;;;;15.36;60.03;100717.38;4438524;32;20349;-89
2021/10/08 09:17:40;;;;;;;;;;;;;;;15.46;60.03;100718.78;4438563;32;19997;-89
2021/10/08 09:20:05;;;;;;;;;;;;;;;15.60;60.04;100719.13;4439110;32;20577;-88
2021/10/08 09:22:37;;;;;;;;;;;;;;;15.63;60.05;100716.44;4438183;32;20278;-89
2021/10/08 09:25:06;;;;;;;;;;;;;;;15.91;60.06;100713.59;4439561;32;19977;-87
2021/10/08 09:27:32;;;;;;;;;;;;;;;15.89;60.06;100718.06;4437662;32;20719;-90
2021/10/08 09:29:57;;;;;;;;;;;;;;;15.89;60.06;100717.22;4424509;32;20018;-88
2021/10/08 09:32:23;;;;;;;;;;;;;;;15.80;60.06;100718.37;4436634;32;30286;-88
2021/10/08 09:34:49;;;;;;;;;;;;;;;15.86;60.06;100712.94;4424634;32;20274;-88
2021/10/08 09:37:15;;;;;;;;;;;;;;;15.98;60.06;100716.84;4438136;32;19993;-89
2021/10/08 09:39:41;;;;;;;;;;;;;;;16.04;60.06;100716.59;4424459;32;19970;-88
2021/10/08 09:42:11;;;;;;;;;;;;;;;15.87;60.06;100713.78;4439134;32;20051;-89
2021/10/08 09:44:44;;;;;;;;;;;;;;;15.86;60.06;100709.44;4437803;32;20000;-88
2021/10/08 09:47:14;;;;;;;;;;;;;;;16.02;60.07;100701.81;4425075;32;20534;-88
2021/10/08 09:49:39;;;;;;;;;;;;;;;16.18;60.08;100702.94;4439286;32;20003;-87
2021/10/08 09:52:24;;;;;;;;;;;;;;;16.37;60.08;100701.28;4437858;32;19981;-88
2021/10/08 09:54:49;;;;;;;;;;;;;;;16.66;60.11;100696.59;4439780;32;20045;-88
2021/10/08 09:57:14;;;;;;;;;;;;;;;16.48;60.09;100696.41;4425050;32;19990;-88
2021/10/08 09:59:40;;;;;;;;;;;;;;;16.64;60.10;100695.78;4438544;32;27953;-88
2021/10/08 10:02:05;;;;;;;;;;;;;;;16.81;60.11;100693.34;4444706;32;20023;-89
2021/10/08 10:04:50;;;;;;;;;;;;;;;16.89;60.11;100704.38;4437480;32;19997;-88
2021/10/08 10:07:16;;;;;;;;;;;;;;;16.80;60.11;100702.16;4424402;32;20585;-89
2021/10/08 10:09:42;;;;;;;;;;;;;;;17.00;60.11;100690.75;4439138;32;19993;-89
2021/10/08 10:12:07;;;;;;;;;;;;;;;17.22;60.12;100691.53;4437576;32;20030;-89
2021/10/08 10:14:33;;;;;;;;;;;;;;;17.41;60.14;100692.41;4437398;32;20034;-89
2021/10/08 10:16:58;;;;;;;;;;;;;;;17.43;60.14;100695.84;4424675;32;20007;-88
2021/10/08 10:19:23;;;;;;;;;;;;;;;17.54;60.15;100692.72;4436830;32;25679;-89
2021/10/08 10:21:48;;;;;;;;;;;;;;;17.66;60.15;100691.28;4436993;32;29993;-90
2021/10/08 10:24:14;;;;;;;;;;;;;;;17.81;60.16;100689.78;4437075;32;32370;-88
2021/10/08 10:26:39;;;;;;;;;;;;;;;17.98;60.17;100690.69;4436436;32;23717;-90
2021/10/08 10:29:04;;;;;;;;;;;;;;;17.98;60.17;100684.53;4436157;32;33520;-88
2021/10/08 10:31:30;;;;;;;;;;;;;;;18.12;60.18;100694.44;4437083;32;20004;-89
2021/10/08 10:33:56;;;;;;;;;;;;;;;18.02;60.18;100686.12;4424109;32;19990;-88
2021/10/08 10:36:21;;;;;;;;;;;;;;;17.74;60.16;100684.81;4436813;32;19985;-88
2021/10/08 10:38:47;;;;;;;;;;;;;;;17.72;60.16;100683.12;4437857;32;20020;-88
2021/10/08 10:41:12;;;;;;;;;;;;;;;17.73;60.16;100682.22;4436444;32;27882;-89
2021/10/08 10:43:49;;;;;;;;;;;;;;;17.81;60.16;100690.63;4436391;32;20014;-88
2021/10/08 10:47:10;;;;;;;;;;;;;;;18.07;60.18;100687.59;4425039;32;20076;-88
2021/10/08 10:51:57;;;;;;;;;;;;;;;17.96;60.17;100695.16;4440558;32;19949;-89
2021/10/08 10:54:38;;;;;;;;;;;;;;;17.99;60.17;100700.31;4426166;32;19973;-88
2021/10/08 10:57:03;;;;;;;;;;;;;;;18.18;60.18;100697.63;4440402;32;20058;-89
2021/10/08 10:59:29;;;;;;;;;;;;;;;18.34;60.19;100697.72;4438951;32;19994;-88
2021/10/08 11:02:07;;;;;;;;;;;;;;;18.31;60.19;100689.97;4439005;32;19996;-89
2021/10/08 11:04:34;;;;;;;;;;;;;;;18.00;60.18;100688.84;4440000;32;19961;-87
2021/10/08 11:07:02;;;;;;;;;;;;;;;18.05;60.18;100693.88;4426029;32;20625;-88
2021/10/08 11:09:27;;;;;;;;;;;;;;;18.20;60.18;100685.22;4438781;32;19969;-89
2021/10/08 11:12:12;;;;;;;;;;;;;;;17.99;60.17;100691.53;4438306;32;34034;-89
2021/10/08 11:14:37;;;;;;;;;;;;;;;18.04;60.18;100690.41;4440503;32;20040;-88
2021/10/08 11:17:22;;;;;;;;;;;;;;;18.19;60.18;100687.94;4438045;32;24982;-89
2021/10/08 11:19:49;;;;;;;;;;;;;;;17.98;60.17;100689.81;4438475;32;19984;-87
2021/10/08 11:22:14;;;;;;;;;;;;;;;18.22;60.18;100685.16;4438529;32;19978;-88
2021/10/08 11:24:39;;;;;;;;;;;;;;;18.10;60.19;100684.81;4438281;32;26640;-88
2021/10/08 11:27:05;;;;;;;;;;;;;;;18.38;60.20;100692.22;4438693;32;19989;-89
2021/10/08 11:29:31;;;;;;;;;;;;;;;18.34;60.19;100687.19;4439020;32;20425;-88
2021/10/08 11:32:17;;;;;;;;;;;;;;;18.44;60.20;100687.56;4439317;32;19969;-89
2021/10/08 11:34:49;;;;;;;;;;;;;;;18.52;60.20;100672.25;4440116;32;19985;-89
2021/10/08 11:37:14;;;;;;;;;;;;;;;18.73;60.21;100671.19;4439509;32;20001;-89
2021/10/08 11:39:41;;;;;;;;;;;;;;;18.82;60.22;100672.50;4438724;32;20032;-88
2021/10/08 11:42:16;;;;;;;;;;;;;;;18.72;60.21;100663.38;4439088;32;19984;-89
2021/10/08 11:45:06;;;;;;;;;;;;;;;18.65;60.20;100673.34;4445293;32;19958;-89
2021/10/08 11:47:52;;;;;;;;;;;;;;;18.81;60.21;100661.09;4430440;32;19958;-88
2021/10/08 11:52:54;;;;;;;;;;;;;;;18.83;60.22;100656.59;4438528;32;19981;-88
2021/10/08 11:55:20;;;;;;;;;;;;;;;18.68;60.21;100670.56;4438524;32;19996;-89
2021/10/08 11:57:46;;;;;;;;;;;;;;;18.54;60.21;100673.88;4438460;32;20301;-88
2021/10/08 12:00:11;;;;;;;;;;;;;;;18.77;60.21;100671.91;4438022;32;20011;-88
2021/10/08 12:02:36;;;;;;;;;;;;;;;18.93;60.23;100663.13;4436882;32;20313;-88
2021/10/08 12:05:02;;;;;;;;;;;;;;;18.90;60.23;100665.03;4438287;32;19990;-89
2021/10/08 12:07:37;;;;;;;;;;;;;;;18.93;60.23;100664.91;4438685;32;20545;-88
2021/10/08 12:10:10;;;;;;;;;;;;;;;18.89;60.23;100665.97;4439743;32;20349;-90
2021/10/08 12:12:35;;;;;;;;;;;;;;;18.87;60.23;100668.69;4439004;32;19985;-89
2021/10/08 12:15:00;;;;;;;;;;;;;;;18.94;60.23;100663.97;4438633;32;20005;-88
2021/10/08 12:17:25;;;;;;;;;;;;;;;19.00;60.23;100664.50;4438350;32;23109;-88
2021/10/08 12:19:50;;;;;;;;;;;;;;;18.98;60.22;100663.72;4437646;32;30371;-89
2021/10/08 12:22:26;;;;;;;;;;;;;;;18.84;60.23;100665.38;4438336;32;20011;-90
2021/10/08 12:24:51;;;;;;;;;;;;;;;18.91;60.22;100672.03;4425622;32;20000;-89
2021/10/08 12:27:16;;;;;;;;;;;;;;;18.88;60.22;100659.00;4438503;32;20029;-89
2021/10/08 12:29:42;;;;;;;;;;;;;;;18.94;60.23;100667.47;4437492;32;29358;-88
2021/10/08 12:32:08;;;;;;;;;;;;;;;18.90;60.22;100665.88;4438365;32;20379;-88
2021/10/08 12:34:54;;;;;;;;;;;;;;;18.77;60.22;100670.09;4425189;32;19970;-89
2021/10/08 12:37:29;;;;;;;;;;;;;;;18.73;60.21;100676.47;4439641;32;20443;-89
2021/10/08 12:40:08;;;;;;;;;;;;;;;18.66;60.21;100672.44;4438979;32;19997;-88